sensor_id;sensor_type;location;lat;lon;timestamp;pressure;altitude;pressure_sealevel;temperature;humidity
77023;BME280;65952;51.440;-2.054;2023-03-02T00:00:54;101308.09;;;5.00;77.95
77023;BME280;65952;51.440;-2.054;2023-03-02T00:03:22;101304.78;;;4.97;78.02
77023;BME280;65952;51.440;-2.054;2023-03-02T00:05:48;101310.22;;;4.95;77.97
77023;BME280;65952;51.440;-2.054;2023-03-02T00:08:15;101301.28;;;4.96;78.05
77023;BME280;65952;51.440;-2.054;2023-03-02T00:10:42;101299.38;;;4.98;78.00
77023;BME280;65952;51.440;-2.054;2023-03-02T00:13:08;101296.41;;;4.90;78.11
77023;BME280;65952;51.440;-2.054;2023-03-02T00:15:33;101296.50;;;4.88;78.13
77023;BME280;65952;51.440;-2.054;2023-03-02T00:17:59;101299.69;;;4.94;78.37
77023;BME280;65952;51.440;-2.054;2023-03-02T00:20:24;101302.38;;;4.94;78.20
77023;BME280;65952;51.440;-2.054;2023-03-02T00:22:50;101304.25;;;4.92;78.24
77023;BME280;65952;51.440;-2.054;2023-03-02T00:25:16;101290.66;;;4.96;78.35
77023;BME280;65952;51.440;-2.054;2023-03-02T00:27:41;101298.53;;;4.98;78.00
77023;BME280;65952;51.440;-2.054;2023-03-02T00:30:08;101300.53;;;4.94;78.01
77023;BME280;65952;51.440;-2.054;2023-03-02T00:32:34;101292.91;;;4.90;78.11
77023;BME280;65952;51.440;-2.054;2023-03-02T00:34:59;101294.03;;;4.85;78.14
77023;BME280;65952;51.440;-2.054;2023-03-02T00:37:24;101296.50;;;4.88;78.15
77023;BME280;65952;51.440;-2.054;2023-03-02T00:39:51;101295.13;;;4.83;78.12
77023;BME280;65952;51.440;-2.054;2023-03-02T00:42:18;101299.91;;;4.78;78.30
77023;BME280;65952;51.440;-2.054;2023-03-02T00:44:43;101306.81;;;4.80;78.36
77023;BME280;65952;51.440;-2.054;2023-03-02T00:47:09;101299.81;;;4.79;78.46
77023;BME280;65952;51.440;-2.054;2023-03-02T00:49:34;101302.44;;;4.66;78.73
77023;BME280;65952;51.440;-2.054;2023-03-02T00:52:01;101307.47;;;4.71;78.60
77023;BME280;65952;51.440;-2.054;2023-03-02T00:54:26;101298.31;;;4.62;78.93
77023;BME280;65952;51.440;-2.054;2023-03-02T00:56:52;101306.59;;;4.58;79.15
77023;BME280;65952;51.440;-2.054;2023-03-02T00:59:17;101298.41;;;4.61;78.91
77023;BME280;65952;51.440;-2.054;2023-03-02T01:01:57;101299.38;;;4.60;78.99
77023;BME280;65952;51.440;-2.054;2023-03-02T01:04:42;101298.53;;;4.59;78.98
77023;BME280;65952;51.440;-2.054;2023-03-02T01:07:14;101303.19;;;4.55;79.12
77023;BME280;65952;51.440;-2.054;2023-03-02T01:09:40;101304.47;;;4.50;79.36
77023;BME280;65952;51.440;-2.054;2023-03-02T01:12:07;101298.63;;;4.58;79.17
77023;BME280;65952;51.440;-2.054;2023-03-02T01:14:38;101294.34;;;4.55;79.10
77023;BME280;65952;51.440;-2.054;2023-03-02T01:17:05;101290.00;;;4.54;79.17
77023;BME280;65952;51.440;-2.054;2023-03-02T01:19:31;101289.25;;;4.52;79.18
77023;BME280;65952;51.440;-2.054;2023-03-02T01:21:56;101290.00;;;4.54;79.30
77023;BME280;65952;51.440;-2.054;2023-03-02T01:24:22;101287.66;;;4.62;78.81
77023;BME280;65952;51.440;-2.054;2023-03-02T01:26:47;101282.47;;;4.61;79.37
77023;BME280;65952;51.440;-2.054;2023-03-02T01:29:12;101280.00;;;4.58;78.96
77023;BME280;65952;51.440;-2.054;2023-03-02T01:31:38;101280.22;;;4.54;78.96
77023;BME280;65952;51.440;-2.054;2023-03-02T01:34:03;101288.31;;;4.53;78.96
77023;BME280;65952;51.440;-2.054;2023-03-02T01:36:29;101273.59;;;4.47;79.18
77023;BME280;65952;51.440;-2.054;2023-03-02T01:38:54;101279.88;;;4.46;79.43
77023;BME280;65952;51.440;-2.054;2023-03-02T01:41:20;101284.47;;;4.44;79.14
77023;BME280;65952;51.440;-2.054;2023-03-02T01:43:45;101278.75;;;4.50;78.99
77023;BME280;65952;51.440;-2.054;2023-03-02T01:46:15;101279.69;;;4.49;78.67
77023;BME280;65952;51.440;-2.054;2023-03-02T01:48:46;101281.88;;;4.43;79.02
77023;BME280;65952;51.440;-2.054;2023-03-02T01:51:15;101279.44;;;4.39;79.02
77023;BME280;65952;51.440;-2.054;2023-03-02T01:53:43;101271.66;;;4.36;79.07
77023;BME280;65952;51.440;-2.054;2023-03-02T01:56:14;101269.78;;;4.38;78.98
77023;BME280;65952;51.440;-2.054;2023-03-02T01:58:41;101274.25;;;4.38;78.91
77023;BME280;65952;51.440;-2.054;2023-03-02T02:01:07;101268.06;;;4.37;78.99
77023;BME280;65952;51.440;-2.054;2023-03-02T02:03:39;101263.69;;;4.36;78.96
77023;BME280;65952;51.440;-2.054;2023-03-02T02:06:24;101265.50;;;4.36;78.93
77023;BME280;65952;51.440;-2.054;2023-03-02T02:08:52;101259.78;;;4.29;79.07
77023;BME280;65952;51.440;-2.054;2023-03-02T02:11:18;101264.03;;;4.32;79.05
77023;BME280;65952;51.440;-2.054;2023-03-02T02:13:44;101255.41;;;4.28;78.96
77023;BME280;65952;51.440;-2.054;2023-03-02T02:16:10;101260.06;;;4.25;79.05
77023;BME280;65952;51.440;-2.054;2023-03-02T02:18:38;101261.44;;;4.17;79.18
77023;BME280;65952;51.440;-2.054;2023-03-02T02:21:04;101263.16;;;4.18;79.32
77023;BME280;65952;51.440;-2.054;2023-03-02T02:26:22;101259.72;;;4.16;79.37
77023;BME280;65952;51.440;-2.054;2023-03-02T02:31:39;101251.72;;;4.03;79.72
77023;BME280;65952;51.440;-2.054;2023-03-02T02:34:16;101245.69;;;4.01;79.88
77023;BME280;65952;51.440;-2.054;2023-03-02T02:36:49;101243.63;;;3.92;80.04
77023;BME280;65952;51.440;-2.054;2023-03-02T02:39:27;101244.91;;;3.86;80.10
77023;BME280;65952;51.440;-2.054;2023-03-02T02:41:57;101249.66;;;3.81;80.50
77023;BME280;65952;51.440;-2.054;2023-03-02T02:44:23;101239.97;;;3.80;80.73
77023;BME280;65952;51.440;-2.054;2023-03-02T02:46:48;101237.75;;;3.87;80.61
77023;BME280;65952;51.440;-2.054;2023-03-02T02:49:28;101238.63;;;3.87;80.52
77023;BME280;65952;51.440;-2.054;2023-03-02T02:51:54;101235.66;;;3.92;80.44
77023;BME280;65952;51.440;-2.054;2023-03-02T02:54:21;101240.84;;;3.94;80.22
77023;BME280;65952;51.440;-2.054;2023-03-02T02:56:48;101237.47;;;3.92;80.56
77023;BME280;65952;51.440;-2.054;2023-03-02T02:59:20;101233.66;;;3.96;80.34
77023;BME280;65952;51.440;-2.054;2023-03-02T03:01:47;101238.84;;;3.97;80.30
77023;BME280;65952;51.440;-2.054;2023-03-02T03:04:17;101234.50;;;3.96;80.19
77023;BME280;65952;51.440;-2.054;2023-03-02T03:06:59;101241.50;;;3.97;80.12
77023;BME280;65952;51.440;-2.054;2023-03-02T03:09:25;101242.16;;;4.01;80.05
77023;BME280;65952;51.440;-2.054;2023-03-02T03:11:56;101248.22;;;4.03;79.92
77023;BME280;65952;51.440;-2.054;2023-03-02T03:14:33;101248.00;;;4.06;79.75
77023;BME280;65952;51.440;-2.054;2023-03-02T03:16:59;101247.06;;;4.07;79.65
77023;BME280;65952;51.440;-2.054;2023-03-02T03:19:30;101244.63;;;4.04;79.70
77023;BME280;65952;51.440;-2.054;2023-03-02T03:21:58;101249.28;;;4.00;79.77
77023;BME280;65952;51.440;-2.054;2023-03-02T03:24:26;101241.63;;;3.96;79.98
77023;BME280;65952;51.440;-2.054;2023-03-02T03:26:52;101250.13;;;4.01;80.02
77023;BME280;65952;51.440;-2.054;2023-03-02T03:29:19;101246.97;;;4.09;79.60
77023;BME280;65952;51.440;-2.054;2023-03-02T03:31:49;101250.59;;;4.07;79.46
77023;BME280;65952;51.440;-2.054;2023-03-02T03:34:15;101256.09;;;4.04;79.42
77023;BME280;65952;51.440;-2.054;2023-03-02T03:36:41;101252.59;;;4.04;79.41
77023;BME280;65952;51.440;-2.054;2023-03-02T03:39:08;101258.75;;;4.04;79.37
77023;BME280;65952;51.440;-2.054;2023-03-02T03:41:34;101253.53;;;4.03;79.39
77023;BME280;65952;51.440;-2.054;2023-03-02T03:44:00;101258.50;;;3.95;79.62
77023;BME280;65952;51.440;-2.054;2023-03-02T03:46:26;101255.66;;;3.98;79.69
77023;BME280;65952;51.440;-2.054;2023-03-02T03:48:52;101260.09;;;3.97;79.58
77023;BME280;65952;51.440;-2.054;2023-03-02T03:51:17;101254.78;;;3.97;79.45
77023;BME280;65952;51.440;-2.054;2023-03-02T03:53:43;101258.84;;;3.90;79.61
77023;BME280;65952;51.440;-2.054;2023-03-02T03:56:08;101260.22;;;3.96;79.58
77023;BME280;65952;51.440;-2.054;2023-03-02T03:58:34;101257.78;;;3.93;79.24
77023;BME280;65952;51.440;-2.054;2023-03-02T04:01:00;101253.97;;;3.97;79.09
77023;BME280;65952;51.440;-2.054;2023-03-02T04:03:25;101261.94;;;3.97;79.02
77023;BME280;65952;51.440;-2.054;2023-03-02T04:05:51;101256.72;;;3.95;79.18
77023;BME280;65952;51.440;-2.054;2023-03-02T04:08:17;101255.31;;;3.89;79.27
77023;BME280;65952;51.440;-2.054;2023-03-02T04:10:43;101260.31;;;3.94;79.07
77023;BME280;65952;51.440;-2.054;2023-03-02T04:13:09;101253.53;;;3.90;79.11
77023;BME280;65952;51.440;-2.054;2023-03-02T04:15:35;101257.66;;;3.94;79.02
77023;BME280;65952;51.440;-2.054;2023-03-02T04:18:01;101255.19;;;3.91;79.05
77023;BME280;65952;51.440;-2.054;2023-03-02T04:20:27;101258.50;;;3.95;79.09
77023;BME280;65952;51.440;-2.054;2023-03-02T04:22:53;101265.81;;;3.91;79.14
77023;BME280;65952;51.440;-2.054;2023-03-02T04:25:21;101263.50;;;3.86;79.06
77023;BME280;65952;51.440;-2.054;2023-03-02T04:27:49;101266.94;;;3.74;78.09
77023;BME280;65952;51.440;-2.054;2023-03-02T04:30:17;101264.78;;;3.66;77.42
77023;BME280;65952;51.440;-2.054;2023-03-02T04:32:42;101263.84;;;3.67;76.81
77023;BME280;65952;51.440;-2.054;2023-03-02T04:35:10;101272.09;;;3.63;77.17
77023;BME280;65952;51.440;-2.054;2023-03-02T04:37:36;101262.22;;;3.65;76.85
77023;BME280;65952;51.440;-2.054;2023-03-02T04:40:01;101265.84;;;3.64;74.81
77023;BME280;65952;51.440;-2.054;2023-03-02T04:42:28;101270.19;;;3.65;73.74
77023;BME280;65952;51.440;-2.054;2023-03-02T04:44:53;101268.13;;;3.55;72.26
77023;BME280;65952;51.440;-2.054;2023-03-02T04:47:19;101272.88;;;3.50;71.88
77023;BME280;65952;51.440;-2.054;2023-03-02T04:49:44;101272.78;;;3.52;72.15
77023;BME280;65952;51.440;-2.054;2023-03-02T04:52:10;101276.50;;;3.49;70.69
77023;BME280;65952;51.440;-2.054;2023-03-02T04:54:35;101267.97;;;3.44;70.58
77023;BME280;65952;51.440;-2.054;2023-03-02T04:57:01;101278.59;;;3.44;69.07
77023;BME280;65952;51.440;-2.054;2023-03-02T04:59:27;101276.44;;;3.36;68.65
77023;BME280;65952;51.440;-2.054;2023-03-02T05:01:55;101280.25;;;3.32;68.24
77023;BME280;65952;51.440;-2.054;2023-03-02T05:04:21;101284.66;;;3.32;67.84
77023;BME280;65952;51.440;-2.054;2023-03-02T05:06:47;101275.31;;;3.26;68.11
77023;BME280;65952;51.440;-2.054;2023-03-02T05:09:13;101281.06;;;3.33;68.15
77023;BME280;65952;51.440;-2.054;2023-03-02T05:11:38;101281.84;;;3.35;67.92
77023;BME280;65952;51.440;-2.054;2023-03-02T05:14:06;101283.16;;;3.28;67.67
77023;BME280;65952;51.440;-2.054;2023-03-02T05:16:34;101277.41;;;3.06;67.60
77023;BME280;65952;51.440;-2.054;2023-03-02T05:19:01;101281.19;;;3.02;67.67
77023;BME280;65952;51.440;-2.054;2023-03-02T05:21:27;101286.69;;;2.99;67.94
77023;BME280;65952;51.440;-2.054;2023-03-02T05:23:54;101283.97;;;3.01;67.82
77023;BME280;65952;51.440;-2.054;2023-03-02T05:26:19;101281.09;;;3.04;67.85
77023;BME280;65952;51.440;-2.054;2023-03-02T05:28:45;101289.16;;;3.02;67.70
77023;BME280;65952;51.440;-2.054;2023-03-02T05:31:21;101290.09;;;3.01;67.41
77023;BME280;65952;51.440;-2.054;2023-03-02T05:33:47;101296.84;;;3.07;67.82
77023;BME280;65952;51.440;-2.054;2023-03-02T05:36:13;101290.56;;;3.08;67.87
77023;BME280;65952;51.440;-2.054;2023-03-02T05:38:38;101301.84;;;3.12;67.77
77023;BME280;65952;51.440;-2.054;2023-03-02T05:41:03;101288.69;;;3.10;67.69
77023;BME280;65952;51.440;-2.054;2023-03-02T05:43:29;101299.50;;;3.07;67.82
77023;BME280;65952;51.440;-2.054;2023-03-02T05:45:54;101301.38;;;3.05;67.51
77023;BME280;65952;51.440;-2.054;2023-03-02T05:48:28;101296.75;;;3.08;67.51
77023;BME280;65952;51.440;-2.054;2023-03-02T05:50:54;101297.00;;;3.04;67.45
77023;BME280;65952;51.440;-2.054;2023-03-02T05:53:20;101295.41;;;3.01;67.39
77023;BME280;65952;51.440;-2.054;2023-03-02T05:55:45;101293.03;;;3.11;67.84
77023;BME280;65952;51.440;-2.054;2023-03-02T05:58:12;101295.78;;;3.09;67.87
77023;BME280;65952;51.440;-2.054;2023-03-02T06:00:39;101291.81;;;3.02;67.98
77023;BME280;65952;51.440;-2.054;2023-03-02T06:03:05;101288.28;;;3.02;67.92
77023;BME280;65952;51.440;-2.054;2023-03-02T06:05:30;101291.16;;;2.99;67.98
77023;BME280;65952;51.440;-2.054;2023-03-02T06:07:55;101292.84;;;3.00;68.34
77023;BME280;65952;51.440;-2.054;2023-03-02T06:10:22;101289.81;;;2.91;68.57
77023;BME280;65952;51.440;-2.054;2023-03-02T06:12:47;101289.81;;;2.91;68.66
77023;BME280;65952;51.440;-2.054;2023-03-02T06:15:12;101290.00;;;2.88;68.83
77023;BME280;65952;51.440;-2.054;2023-03-02T06:17:38;101290.94;;;2.87;69.03
77023;BME280;65952;51.440;-2.054;2023-03-02T06:20:04;101288.41;;;2.86;69.15
77023;BME280;65952;51.440;-2.054;2023-03-02T06:22:36;101284.63;;;2.75;69.07
77023;BME280;65952;51.440;-2.054;2023-03-02T06:25:03;101289.78;;;2.63;69.55
77023;BME280;65952;51.440;-2.054;2023-03-02T06:27:28;101288.28;;;2.58;69.14
77023;BME280;65952;51.440;-2.054;2023-03-02T06:29:54;101284.94;;;2.55;69.45
77023;BME280;65952;51.440;-2.054;2023-03-02T06:32:19;101287.84;;;2.50;69.55
77023;BME280;65952;51.440;-2.054;2023-03-02T06:34:44;101287.44;;;2.58;69.51
77023;BME280;65952;51.440;-2.054;2023-03-02T06:37:10;101285.16;;;2.52;69.57
77023;BME280;65952;51.440;-2.054;2023-03-02T06:39:35;101287.03;;;2.50;69.69
77023;BME280;65952;51.440;-2.054;2023-03-02T06:42:00;101285.97;;;2.38;69.92
77023;BME280;65952;51.440;-2.054;2023-03-02T06:44:26;101280.06;;;2.33;70.00
77023;BME280;65952;51.440;-2.054;2023-03-02T06:46:51;101287.44;;;2.27;70.37
77023;BME280;65952;51.440;-2.054;2023-03-02T06:49:16;101288.47;;;2.25;70.41
77023;BME280;65952;51.440;-2.054;2023-03-02T06:51:42;101289.13;;;2.28;70.18
77023;BME280;65952;51.440;-2.054;2023-03-02T06:54:07;101296.06;;;2.31;70.04
77023;BME280;65952;51.440;-2.054;2023-03-02T06:56:33;101293.16;;;2.36;69.75
77023;BME280;65952;51.440;-2.054;2023-03-02T06:58:58;101294.28;;;2.32;70.29
77023;BME280;65952;51.440;-2.054;2023-03-02T07:01:24;101298.81;;;2.30;70.21
77023;BME280;65952;51.440;-2.054;2023-03-02T07:03:49;101297.78;;;2.32;70.08
77023;BME280;65952;51.440;-2.054;2023-03-02T07:06:15;101296.28;;;2.42;69.96
77023;BME280;65952;51.440;-2.054;2023-03-02T07:08:40;101293.47;;;2.46;69.58
77023;BME280;65952;51.440;-2.054;2023-03-02T07:11:11;101284.06;;;2.40;69.78
77023;BME280;65952;51.440;-2.054;2023-03-02T07:13:38;101292.00;;;2.40;69.79
77023;BME280;65952;51.440;-2.054;2023-03-02T07:16:08;101287.66;;;2.39;70.20
77023;BME280;65952;51.440;-2.054;2023-03-02T07:18:34;101288.16;;;2.46;69.90
77023;BME280;65952;51.440;-2.054;2023-03-02T07:21:00;101289.41;;;2.54;69.77
77023;BME280;65952;51.440;-2.054;2023-03-02T07:23:25;101289.09;;;2.59;69.47
77023;BME280;65952;51.440;-2.054;2023-03-02T07:25:50;101289.31;;;2.56;69.42
77023;BME280;65952;51.440;-2.054;2023-03-02T07:28:16;101282.69;;;2.63;69.09
77023;BME280;65952;51.440;-2.054;2023-03-02T07:30:41;101286.03;;;2.67;69.23
77023;BME280;65952;51.440;-2.054;2023-03-02T07:33:06;101283.84;;;2.73;68.83
77023;BME280;65952;51.440;-2.054;2023-03-02T07:35:32;101286.78;;;2.83;68.49
77023;BME280;65952;51.440;-2.054;2023-03-02T07:37:57;101283.94;;;2.86;68.41
77023;BME280;65952;51.440;-2.054;2023-03-02T07:40:23;101287.34;;;2.88;68.16
77023;BME280;65952;51.440;-2.054;2023-03-02T07:42:48;101277.22;;;2.95;67.94
77023;BME280;65952;51.440;-2.054;2023-03-02T07:45:13;101277.50;;;3.05;67.86
77023;BME280;65952;51.440;-2.054;2023-03-02T07:47:40;101284.69;;;3.03;68.21
77023;BME280;65952;51.440;-2.054;2023-03-02T07:50:07;101282.16;;;3.01;68.33
77023;BME280;65952;51.440;-2.054;2023-03-02T07:52:33;101285.75;;;3.15;67.46
77023;BME280;65952;51.440;-2.054;2023-03-02T07:54:58;101285.53;;;3.18;67.56
77023;BME280;65952;51.440;-2.054;2023-03-02T07:57:24;101284.66;;;3.32;66.94
77023;BME280;65952;51.440;-2.054;2023-03-02T07:59:49;101277.81;;;3.42;66.89
77023;BME280;65952;51.440;-2.054;2023-03-02T08:02:16;101282.94;;;3.45;66.91
77023;BME280;65952;51.440;-2.054;2023-03-02T08:04:41;101283.28;;;3.53;66.41
77023;BME280;65952;51.440;-2.054;2023-03-02T08:07:07;101278.38;;;3.62;65.42
77023;BME280;65952;51.440;-2.054;2023-03-02T08:09:32;101281.38;;;3.70;65.84
77023;BME280;65952;51.440;-2.054;2023-03-02T08:11:58;101281.06;;;3.74;65.47
77023;BME280;65952;51.440;-2.054;2023-03-02T08:14:23;101289.41;;;3.83;65.65
77023;BME280;65952;51.440;-2.054;2023-03-02T08:16:48;101278.13;;;3.79;65.47
77023;BME280;65952;51.440;-2.054;2023-03-02T08:19:16;101278.66;;;3.84;65.39
77023;BME280;65952;51.440;-2.054;2023-03-02T08:21:42;101289.41;;;3.83;65.38
77023;BME280;65952;51.440;-2.054;2023-03-02T08:24:09;101281.06;;;3.74;65.19
77023;BME280;65952;51.440;-2.054;2023-03-02T08:26:34;101280.50;;;3.84;65.69
77023;BME280;65952;51.440;-2.054;2023-03-02T08:29:00;101283.59;;;3.90;65.78
77023;BME280;65952;51.440;-2.054;2023-03-02T08:31:25;101285.63;;;4.00;65.88
77023;BME280;65952;51.440;-2.054;2023-03-02T08:33:51;101288.00;;;4.17;64.85
77023;BME280;65952;51.440;-2.054;2023-03-02T08:36:18;101292.38;;;4.18;64.96
77023;BME280;65952;51.440;-2.054;2023-03-02T08:38:44;101293.28;;;4.32;65.03
77023;BME280;65952;51.440;-2.054;2023-03-02T08:41:12;101295.00;;;4.46;64.83
77023;BME280;65952;51.440;-2.054;2023-03-02T08:43:38;101298.53;;;4.59;64.58
77023;BME280;65952;51.440;-2.054;2023-03-02T08:46:04;101296.41;;;4.77;63.92
77023;BME280;65952;51.440;-2.054;2023-03-02T08:48:29;101298.53;;;4.72;64.50
77023;BME280;65952;51.440;-2.054;2023-03-02T08:51:00;101296.53;;;4.76;64.65
77023;BME280;65952;51.440;-2.054;2023-03-02T08:53:28;101292.03;;;5.02;63.44
77023;BME280;65952;51.440;-2.054;2023-03-02T08:55:54;101288.75;;;4.98;62.94
77023;BME280;65952;51.440;-2.054;2023-03-02T08:58:19;101291.59;;;4.95;63.05
77023;BME280;65952;51.440;-2.054;2023-03-02T09:00:45;101293.84;;;5.01;62.78
77023;BME280;65952;51.440;-2.054;2023-03-02T09:03:11;101298.63;;;5.09;63.40
77023;BME280;65952;51.440;-2.054;2023-03-02T09:05:36;101290.34;;;5.01;62.50
77023;BME280;65952;51.440;-2.054;2023-03-02T09:08:02;101287.16;;;4.96;63.39
77023;BME280;65952;51.440;-2.054;2023-03-02T09:10:28;101294.06;;;4.98;62.58
77023;BME280;65952;51.440;-2.054;2023-03-02T09:12:53;101292.38;;;4.84;62.75
77023;BME280;65952;51.440;-2.054;2023-03-02T09:15:20;101298.00;;;5.18;62.17
77023;BME280;65952;51.440;-2.054;2023-03-02T09:17:45;101299.97;;;5.28;62.50
77023;BME280;65952;51.440;-2.054;2023-03-02T09:20:11;101303.88;;;5.85;60.03
77023;BME280;65952;51.440;-2.054;2023-03-02T09:22:36;101301.25;;;6.45;58.92
77023;BME280;65952;51.440;-2.054;2023-03-02T09:25:05;101294.53;;;7.09;55.86
77023;BME280;65952;51.440;-2.054;2023-03-02T09:27:31;101291.41;;;7.04;56.18
77023;BME280;65952;51.440;-2.054;2023-03-02T09:29:57;101299.88;;;6.86;57.07
77023;BME280;65952;51.440;-2.054;2023-03-02T09:32:22;101301.13;;;6.46;57.08
77023;BME280;65952;51.440;-2.054;2023-03-02T09:34:48;101297.97;;;7.11;56.54
77023;BME280;65952;51.440;-2.054;2023-03-02T09:37:13;101302.88;;;7.72;54.27
77023;BME280;65952;51.440;-2.054;2023-03-02T09:39:39;101299.66;;;8.22;53.24
77023;BME280;65952;51.440;-2.054;2023-03-02T09:42:16;101301.06;;;9.32;51.14
77023;BME280;65952;51.440;-2.054;2023-03-02T09:52:40;101306.69;;;8.98;49.85
77023;BME280;65952;51.440;-2.054;2023-03-02T09:55:19;101309.44;;;9.49;48.85
77023;BME280;65952;51.440;-2.054;2023-03-02T09:57:46;101312.66;;;8.81;50.34
77023;BME280;65952;51.440;-2.054;2023-03-02T10:00:15;101318.97;;;8.80;51.75
77023;BME280;65952;51.440;-2.054;2023-03-02T10:02:49;101308.66;;;9.78;48.68
77023;BME280;65952;51.440;-2.054;2023-03-02T10:05:22;101319.38;;;9.37;49.14
77023;BME280;65952;51.440;-2.054;2023-03-02T10:07:48;101319.50;;;8.20;51.24
77023;BME280;65952;51.440;-2.054;2023-03-02T10:15:35;101325.94;;;7.73;53.30
77023;BME280;65952;51.440;-2.054;2023-03-02T10:21:02;101333.28;;;7.48;53.22
77023;BME280;65952;51.440;-2.054;2023-03-02T10:23:44;101324.06;;;7.19;55.05
77023;BME280;65952;51.440;-2.054;2023-03-02T10:31:38;101336.69;;;8.92;50.15
77023;BME280;65952;51.440;-2.054;2023-03-02T10:34:06;101325.81;;;8.19;50.66
77023;BME280;65952;51.440;-2.054;2023-03-02T10:36:38;101339.13;;;7.20;53.64
77023;BME280;65952;51.440;-2.054;2023-03-02T10:39:13;101338.22;;;6.14;56.90
77023;BME280;65952;51.440;-2.054;2023-03-02T10:41:44;101347.88;;;5.91;58.45
77023;BME280;65952;51.440;-2.054;2023-03-02T10:44:13;101355.16;;;5.76;58.58
77023;BME280;65952;51.440;-2.054;2023-03-02T10:46:41;101357.19;;;5.72;58.97
77023;BME280;65952;51.440;-2.054;2023-03-02T10:49:29;101345.13;;;5.79;59.31
77023;BME280;65952;51.440;-2.054;2023-03-02T10:52:05;101361.53;;;5.86;59.54
77023;BME280;65952;51.440;-2.054;2023-03-02T10:54:36;101355.03;;;5.77;58.65
77023;BME280;65952;51.440;-2.054;2023-03-02T10:57:03;101347.53;;;5.71;58.78
77023;BME280;65952;51.440;-2.054;2023-03-02T10:59:45;101349.88;;;5.63;59.17
77023;BME280;65952;51.440;-2.054;2023-03-02T11:02:20;101348.41;;;5.59;59.24
77023;BME280;65952;51.440;-2.054;2023-03-02T11:05:18;101347.59;;;5.32;59.31
77023;BME280;65952;51.440;-2.054;2023-03-02T11:07:52;101353.38;;;5.63;58.87
77023;BME280;65952;51.440;-2.054;2023-03-02T11:10:32;101352.94;;;5.82;59.21
77023;BME280;65952;51.440;-2.054;2023-03-02T11:12:59;101345.09;;;6.76;57.58
77023;BME280;65952;51.440;-2.054;2023-03-02T11:20:41;101348.31;;;7.15;54.33
77023;BME280;65952;51.440;-2.054;2023-03-02T11:23:15;101348.97;;;6.72;56.11
77023;BME280;65952;51.440;-2.054;2023-03-02T11:25:54;101351.66;;;6.72;56.26
77023;BME280;65952;51.440;-2.054;2023-03-02T11:28:38;101349.72;;;6.74;56.79
77023;BME280;65952;51.440;-2.054;2023-03-02T11:31:13;101337.88;;;6.90;57.66
77023;BME280;65952;51.440;-2.054;2023-03-02T11:33:57;101347.00;;;7.21;54.32
77023;BME280;65952;51.440;-2.054;2023-03-02T11:36:35;101335.72;;;6.59;55.27
77023;BME280;65952;51.440;-2.054;2023-03-02T11:39:02;101340.97;;;6.72;56.34
77023;BME280;65952;51.440;-2.054;2023-03-02T11:41:34;101338.97;;;7.10;55.33
77023;BME280;65952;51.440;-2.054;2023-03-02T11:44:13;101331.09;;;7.31;54.91
77023;BME280;65952;51.440;-2.054;2023-03-02T11:46:39;101335.19;;;7.69;53.79
77023;BME280;65952;51.440;-2.054;2023-03-02T11:49:12;101332.50;;;7.69;53.74
77023;BME280;65952;51.440;-2.054;2023-03-02T11:51:47;101323.00;;;7.88;53.80
77023;BME280;65952;51.440;-2.054;2023-03-02T11:56:53;101336.31;;;7.55;54.52
77023;BME280;65952;51.440;-2.054;2023-03-02T11:59:20;101334.00;;;7.16;55.29
77023;BME280;65952;51.440;-2.054;2023-03-02T12:01:49;101332.78;;;7.09;55.26
77023;BME280;65952;51.440;-2.054;2023-03-02T12:04:36;101331.59;;;7.36;54.75
77023;BME280;65952;51.440;-2.054;2023-03-02T12:07:22;101323.44;;;7.26;56.33
77023;BME280;65952;51.440;-2.054;2023-03-02T12:10:08;101324.28;;;7.27;55.15
77023;BME280;65952;51.440;-2.054;2023-03-02T12:12:47;101327.94;;;7.48;54.75
77023;BME280;65952;51.440;-2.054;2023-03-02T12:15:43;101326.31;;;8.12;54.13
77023;BME280;65952;51.440;-2.054;2023-03-02T12:21:20;101322.53;;;8.26;52.89
77023;BME280;65952;51.440;-2.054;2023-03-02T12:31:20;101329.00;;;7.69;53.05
77023;BME280;65952;51.440;-2.054;2023-03-02T12:33:48;101328.78;;;7.26;53.66
77023;BME280;65952;51.440;-2.054;2023-03-02T12:36:31;101330.00;;;6.99;54.32
77023;BME280;65952;51.440;-2.054;2023-03-02T12:39:21;101326.94;;;6.93;54.67
77023;BME280;65952;51.440;-2.054;2023-03-02T12:44:44;101316.25;;;7.15;54.17
77023;BME280;65952;51.440;-2.054;2023-03-02T12:47:18;101313.38;;;7.41;54.27
77023;BME280;65952;51.440;-2.054;2023-03-02T12:49:55;101315.06;;;7.42;54.36
77023;BME280;65952;51.440;-2.054;2023-03-02T12:52:27;101312.41;;;7.42;53.97
77023;BME280;65952;51.440;-2.054;2023-03-02T12:55:02;101305.09;;;7.33;53.47
77023;BME280;65952;51.440;-2.054;2023-03-02T12:57:28;101306.31;;;7.52;54.97
77023;BME280;65952;51.440;-2.054;2023-03-02T13:00:00;101309.44;;;7.68;53.76
77023;BME280;65952;51.440;-2.054;2023-03-02T13:02:31;101304.34;;;7.65;52.90
77023;BME280;65952;51.440;-2.054;2023-03-02T13:05:06;101302.34;;;7.78;53.94
77023;BME280;65952;51.440;-2.054;2023-03-02T13:07:35;101300.47;;;7.46;52.84
77023;BME280;65952;51.440;-2.054;2023-03-02T13:10:07;101308.47;;;7.69;53.07
77023;BME280;65952;51.440;-2.054;2023-03-02T13:12:34;101312.13;;;7.45;53.60
77023;BME280;65952;51.440;-2.054;2023-03-02T13:15:01;101303.16;;;7.46;53.80
77023;BME280;65952;51.440;-2.054;2023-03-02T13:17:29;101304.34;;;7.65;54.10
77023;BME280;65952;51.440;-2.054;2023-03-02T13:19:57;101299.09;;;8.07;52.81
77023;BME280;65952;51.440;-2.054;2023-03-02T13:22:22;101296.94;;;8.01;53.25
77023;BME280;65952;51.440;-2.054;2023-03-02T13:25:00;101296.28;;;7.88;54.02
77023;BME280;65952;51.440;-2.054;2023-03-02T13:27:28;101292.69;;;7.98;53.95
77023;BME280;65952;51.440;-2.054;2023-03-02T13:29:54;101285.22;;;8.13;53.32
77023;BME280;65952;51.440;-2.054;2023-03-02T13:34:58;101286.03;;;7.49;54.33
77023;BME280;65952;51.440;-2.054;2023-03-02T13:37:38;101283.34;;;7.49;55.01
77023;BME280;65952;51.440;-2.054;2023-03-02T13:40:40;101269.84;;;7.62;54.00
77023;BME280;65952;51.440;-2.054;2023-03-02T13:45:59;101275.84;;;7.87;53.81
77023;BME280;65952;51.440;-2.054;2023-03-02T13:48:25;101270.72;;;7.62;52.99
77023;BME280;65952;51.440;-2.054;2023-03-02T13:51:13;101279.81;;;7.60;53.10